KRUE

Details ICAO KRUE
Name RUSSELLVILLE RGNL
Region United States
Timezone America/Chicago (UTC-6.0)
Plans Departing 1
Arriving 12
Stats Elevation 403 ft / 123 m (AMSL)
Location 35.259147° -93.093266°
Runways 1
Magnetic Variation 0.812° E
Sunrise 2017-12-11 13:12:32 UTC / 2017-12-11 07:12:32 Local
Sunset 2017-12-11 23:01:52 UTC / 2017-12-11 17:01:52 Local
Advertisement - Login to hide

Runways

ID Width Length Bearing (true) Bearing (mag) Surface Threshold Offset Overrun Length
07 75 ft / 23 m 5,085 ft / 1,550 m 74.98° 74.17° Asphalt 0 ft / 0 m 0 ft / 0 m
25 75 ft / 23 m 5,085 ft / 1,550 m 254.99° 254.18° Asphalt 300 ft / 91 m 0 ft / 0 m

Map

Weather


0- 5 10 15 20 25 30 35+ Temperature / ° C

Clouds and Precipitation
Forecast for 2017-12-11 18:00 UTC. Updated 12 minutes ago

Ground ~20,000 ft ~40,000 ft Winds

METAR

KRUE 111453Z AUTO 25003KT 10SM CLR 03/M01 A3015 RMK AO2 SLP209 T00331006 58006

TAF

Not found

Frequencies

Recorded 132.47 MHz ASOS
Approach 128.47 MHz MEMPHIS CNTR
Unicom 122.70 MHz CTAF/UNICOM
Warning: Do not use this data for real-world aviation or navigation. No guarantee of current accuracy is given.